sensor_id;sensor_type;location;lat;lon;timestamp;pressure;altitude;pressure_sealevel;temperature;humidity
10852;BME280;5479;52.046;6.314;2022-11-20T00:01:15;101318.84;;;-2.64;100.00
10852;BME280;5479;52.046;6.314;2022-11-20T00:03:44;101315.41;;;-2.68;100.00
10852;BME280;5479;52.046;6.314;2022-11-20T00:06:14;101320.56;;;-2.74;100.00
10852;BME280;5479;52.046;6.314;2022-11-20T00:08:44;101321.41;;;-2.79;100.00
10852;BME280;5479;52.046;6.314;2022-11-20T00:11:14;101324.00;;;-2.82;100.00
10852;BME280;5479;52.046;6.314;2022-11-20T00:13:43;101317.94;;;-2.87;100.00
10852;BME280;5479;52.046;6.314;2022-11-20T00:16:12;101323.13;;;-2.87;100.00
10852;BME280;5479;52.046;6.314;2022-11-20T00:18:41;101321.38;;;-2.88;100.00
10852;BME280;5479;52.046;6.314;2022-11-20T00:21:12;101321.38;;;-2.93;100.00
10852;BME280;5479;52.046;6.314;2022-11-20T00:23:40;101319.66;;;-2.89;100.00
10852;BME280;5479;52.046;6.314;2022-11-20T00:26:12;101317.91;;;-2.90;100.00
10852;BME280;5479;52.046;6.314;2022-11-20T00:28:41;101304.94;;;-2.93;100.00
10852;BME280;5479;52.046;6.314;2022-11-20T00:31:10;101311.88;;;-2.92;100.00
10852;BME280;5479;52.046;6.314;2022-11-20T00:33:39;101304.09;;;-2.91;100.00
10852;BME280;5479;52.046;6.314;2022-11-20T00:36:09;101303.19;;;-2.99;100.00
10852;BME280;5479;52.046;6.314;2022-11-20T00:38:37;101300.63;;;-2.97;100.00
10852;BME280;5479;52.046;6.314;2022-11-20T00:41:06;101308.38;;;-3.05;100.00
10852;BME280;5479;52.046;6.314;2022-11-20T00:43:36;101307.47;;;-3.16;100.00
10852;BME280;5479;52.046;6.314;2022-11-20T00:46:06;101308.34;;;-3.14;100.00
10852;BME280;5479;52.046;6.314;2022-11-20T00:48:34;101305.72;;;-3.22;100.00
10852;BME280;5479;52.046;6.314;2022-11-20T00:51:02;101306.56;;;-3.24;100.00
10852;BME280;5479;52.046;6.314;2022-11-20T00:53:32;101294.44;;;-3.30;100.00
10852;BME280;5479;52.046;6.314;2022-11-20T00:56:01;101291.88;;;-3.27;100.00
10852;BME280;5479;52.046;6.314;2022-11-20T00:58:31;101298.78;;;-3.23;100.00
10852;BME280;5479;52.046;6.314;2022-11-20T01:01:02;101300.50;;;-3.23;100.00
10852;BME280;5479;52.046;6.314;2022-11-20T01:03:31;101301.34;;;-3.30;100.00
10852;BME280;5479;52.046;6.314;2022-11-20T01:06:00;101313.47;;;-3.20;100.00
10852;BME280;5479;52.046;6.314;2022-11-20T01:08:31;101296.97;;;-3.39;100.00
10852;BME280;5479;52.046;6.314;2022-11-20T01:11:00;101299.56;;;-3.43;100.00
10852;BME280;5479;52.046;6.314;2022-11-20T01:13:29;101305.63;;;-3.37;100.00
10852;BME280;5479;52.046;6.314;2022-11-20T01:16:10;101299.56;;;-3.40;100.00
10852;BME280;5479;52.046;6.314;2022-11-20T01:18:41;101310.78;;;-3.41;100.00
10852;BME280;5479;52.046;6.314;2022-11-20T01:21:11;101305.56;;;-3.47;100.00
10852;BME280;5479;52.046;6.314;2022-11-20T01:23:40;101308.16;;;-3.44;100.00
10852;BME280;5479;52.046;6.314;2022-11-20T01:26:10;101311.63;;;-3.48;100.00
10852;BME280;5479;52.046;6.314;2022-11-20T01:28:39;101302.94;;;-3.50;100.00
10852;BME280;5479;52.046;6.314;2022-11-20T01:31:13;101290.88;;;-3.51;100.00
10852;BME280;5479;52.046;6.314;2022-11-20T01:33:43;101290.91;;;-3.42;100.00
10852;BME280;5479;52.046;6.314;2022-11-20T01:36:12;101283.25;;;-3.23;100.00
10852;BME280;5479;52.046;6.314;2022-11-20T01:38:40;101282.31;;;-3.38;100.00
10852;BME280;5479;52.046;6.314;2022-11-20T01:41:09;101283.16;;;-3.39;100.00
10852;BME280;5479;52.046;6.314;2022-11-20T01:43:37;101282.31;;;-3.38;100.00
10852;BME280;5479;52.046;6.314;2022-11-20T01:46:14;101287.50;;;-3.38;100.00
10852;BME280;5479;52.046;6.314;2022-11-20T01:48:47;101291.81;;;-3.39;100.00
10852;BME280;5479;52.046;6.314;2022-11-20T01:51:24;101289.19;;;-3.46;100.00
10852;BME280;5479;52.046;6.314;2022-11-20T01:53:55;101283.16;;;-3.44;100.00
10852;BME280;5479;52.046;6.314;2022-11-20T01:56:25;101273.59;;;-3.52;100.00
10852;BME280;5479;52.046;6.314;2022-11-20T01:58:56;101275.38;;;-3.45;100.00
10852;BME280;5479;52.046;6.314;2022-11-20T02:01:27;101265.91;;;-3.40;100.00
10852;BME280;5479;52.046;6.314;2022-11-20T02:03:56;101273.69;;;-3.40;100.00
10852;BME280;5479;52.046;6.314;2022-11-20T02:06:25;101273.63;;;-3.51;100.00
10852;BME280;5479;52.046;6.314;2022-11-20T02:08:55;101266.66;;;-3.62;100.00
10852;BME280;5479;52.046;6.314;2022-11-20T02:11:23;101269.19;;;-3.70;100.00
10852;BME280;5479;52.046;6.314;2022-11-20T02:13:52;101265.72;;;-3.75;100.00
10852;BME280;5479;52.046;6.314;2022-11-20T02:16:22;101263.16;;;-3.71;100.00
10852;BME280;5479;52.046;6.314;2022-11-20T02:18:53;101252.81;;;-3.71;100.00
10852;BME280;5479;52.046;6.314;2022-11-20T02:21:34;101261.41;;;-3.75;100.00
10852;BME280;5479;52.046;6.314;2022-11-20T02:24:09;101245.03;;;-3.75;100.00
10852;BME280;5479;52.046;6.314;2022-11-20T02:26:45;101242.38;;;-3.80;100.00
10852;BME280;5479;52.046;6.314;2022-11-20T02:29:17;101238.13;;;-3.73;100.00
10852;BME280;5479;52.046;6.314;2022-11-20T02:31:46;101253.66;;;-3.75;100.00
10852;BME280;5479;52.046;6.314;2022-11-20T02:34:14;101238.06;;;-3.84;100.00
10852;BME280;5479;52.046;6.314;2022-11-20T02:36:42;101228.53;;;-3.94;100.00
10852;BME280;5479;52.046;6.314;2022-11-20T02:39:13;101230.22;;;-3.96;100.00
10852;BME280;5479;52.046;6.314;2022-11-20T02:41:44;101230.22;;;-3.93;100.00
10852;BME280;5479;52.046;6.314;2022-11-20T02:44:12;101224.22;;;-3.87;100.00
10852;BME280;5479;52.046;6.314;2022-11-20T02:46:40;101222.50;;;-3.91;100.00
10852;BME280;5479;52.046;6.314;2022-11-20T02:49:07;101222.50;;;-3.85;100.00
10852;BME280;5479;52.046;6.314;2022-11-20T02:51:37;101228.53;;;-3.88;100.00
10852;BME280;5479;52.046;6.314;2022-11-20T02:54:05;101235.41;;;-3.93;100.00
10852;BME280;5479;52.046;6.314;2022-11-20T02:56:37;101228.53;;;-3.94;100.00
10852;BME280;5479;52.046;6.314;2022-11-20T02:59:05;101225.97;;;-3.89;100.00
10852;BME280;5479;52.046;6.314;2022-11-20T03:01:33;101238.03;;;-3.90;100.00
10852;BME280;5479;52.046;6.314;2022-11-20T03:04:01;101239.72;;;-3.90;100.00
10852;BME280;5479;52.046;6.314;2022-11-20T03:06:29;101240.56;;;-3.99;100.00
10852;BME280;5479;52.046;6.314;2022-11-20T03:08:57;101238.78;;;-4.06;100.00
10852;BME280;5479;52.046;6.314;2022-11-20T03:11:25;101236.22;;;-4.04;100.00
10852;BME280;5479;52.046;6.314;2022-11-20T03:13:54;101227.59;;;-4.03;100.00
10852;BME280;5479;52.046;6.314;2022-11-20T03:16:23;101232.75;;;-4.03;100.00
10852;BME280;5479;52.046;6.314;2022-11-20T03:18:53;101235.31;;;-4.08;100.00
10852;BME280;5479;52.046;6.314;2022-11-20T03:21:21;101230.19;;;-4.02;100.00
10852;BME280;5479;52.046;6.314;2022-11-20T03:23:49;101229.41;;;-3.93;100.00
10852;BME280;5479;52.046;6.314;2022-11-20T03:26:19;101235.34;;;-4.05;100.00
10852;BME280;5479;52.046;6.314;2022-11-20T03:28:49;101238.66;;;-4.22;100.00
10852;BME280;5479;52.046;6.314;2022-11-20T03:31:22;101238.69;;;-4.21;100.00
10852;BME280;5479;52.046;6.314;2022-11-20T03:33:50;101238.72;;;-4.15;100.00
10852;BME280;5479;52.046;6.314;2022-11-20T03:36:19;101239.59;;;-4.11;100.00
10852;BME280;5479;52.046;6.314;2022-11-20T03:38:48;101235.28;;;-4.14;100.00
10852;BME280;5479;52.046;6.314;2022-11-20T03:41:18;101229.19;;;-4.23;100.00
10852;BME280;5479;52.046;6.314;2022-11-20T03:43:50;101224.88;;;-4.23;100.00
10852;BME280;5479;52.046;6.314;2022-11-20T03:46:20;101222.28;;;-4.21;100.00
10852;BME280;5479;52.046;6.314;2022-11-20T03:48:49;101219.75;;;-4.14;100.00
10852;BME280;5479;52.046;6.314;2022-11-20T03:51:19;101217.97;;;-4.19;100.00
10852;BME280;5479;52.046;6.314;2022-11-20T03:53:48;101206.78;;;-4.17;100.00
10852;BME280;5479;52.046;6.314;2022-11-20T03:56:17;101204.13;;;-4.29;100.00
10852;BME280;5479;52.046;6.314;2022-11-20T03:58:46;101201.50;;;-4.37;100.00
10852;BME280;5479;52.046;6.314;2022-11-20T04:01:15;101205.03;;;-4.22;100.00
10852;BME280;5479;52.046;6.314;2022-11-20T04:03:45;101200.69;;;-4.25;100.00
10852;BME280;5479;52.046;6.314;2022-11-20T04:06:15;101199.84;;;-4.24;100.00
10852;BME280;5479;52.046;6.314;2022-11-20T04:08:43;101199.03;;;-4.20;100.00
10852;BME280;5479;52.046;6.314;2022-11-20T04:11:13;101191.25;;;-4.26;100.00
10852;BME280;5479;52.046;6.314;2022-11-20T04:13:42;101186.06;;;-4.26;100.00
10852;BME280;5479;52.046;6.314;2022-11-20T04:16:13;101190.47;;;-4.13;100.00
10852;BME280;5479;52.046;6.314;2022-11-20T04:18:42;101190.44;;;-4.16;100.00
10852;BME280;5479;52.046;6.314;2022-11-20T04:21:12;101189.53;;;-4.24;100.00
10852;BME280;5479;52.046;6.314;2022-11-20T04:23:40;101199.81;;;-4.30;100.00
10852;BME280;5479;52.046;6.314;2022-11-20T04:26:10;101196.34;;;-4.32;100.00
10852;BME280;5479;52.046;6.314;2022-11-20T04:28:39;101209.25;;;-4.35;100.00
10852;BME280;5479;52.046;6.314;2022-11-20T04:31:12;101200.59;;;-4.40;100.00
10852;BME280;5479;52.046;6.314;2022-11-20T04:33:40;101197.09;;;-4.48;100.00
10852;BME280;5479;52.046;6.314;2022-11-20T04:36:12;101188.47;;;-4.50;100.00
10852;BME280;5479;52.046;6.314;2022-11-20T04:38:42;101197.91;;;-4.55;100.00
10852;BME280;5479;52.046;6.314;2022-11-20T04:41:14;101200.50;;;-4.55;100.00
10852;BME280;5479;52.046;6.314;2022-11-20T04:43:46;101193.53;;;-4.62;100.00
10852;BME280;5479;52.046;6.314;2022-11-20T04:46:15;101196.09;;;-4.64;100.00
10852;BME280;5479;52.046;6.314;2022-11-20T04:48:44;101195.22;;;-4.64;100.00
10852;BME280;5479;52.046;6.314;2022-11-20T04:51:13;101183.16;;;-4.67;100.00
10852;BME280;5479;52.046;6.314;2022-11-20T04:53:42;101178.84;;;-4.69;100.00
10852;BME280;5479;52.046;6.314;2022-11-20T04:56:12;101175.38;;;-4.70;100.00
10852;BME280;5479;52.046;6.314;2022-11-20T04:58:40;101181.34;;;-4.75;100.00
10852;BME280;5479;52.046;6.314;2022-11-20T05:01:11;101184.00;;;-4.68;100.00
10852;BME280;5479;52.046;6.314;2022-11-20T05:03:39;101189.25;;;-4.59;100.00
10852;BME280;5479;52.046;6.314;2022-11-20T05:06:08;101189.22;;;-4.63;100.00
10852;BME280;5479;52.046;6.314;2022-11-20T05:08:38;101177.19;;;-4.60;100.00
10852;BME280;5479;52.046;6.314;2022-11-20T05:11:07;101184.97;;;-4.58;100.00
10852;BME280;5479;52.046;6.314;2022-11-20T05:13:36;101182.41;;;-4.55;100.00
10852;BME280;5479;52.046;6.314;2022-11-20T05:16:06;101182.28;;;-4.67;100.00
10852;BME280;5479;52.046;6.314;2022-11-20T05:18:35;101187.41;;;-4.70;100.00
10852;BME280;5479;52.046;6.314;2022-11-20T05:21:05;101186.59;;;-4.71;100.00
10852;BME280;5479;52.046;6.314;2022-11-20T05:23:34;101188.28;;;-4.71;100.00
10852;BME280;5479;52.046;6.314;2022-11-20T05:26:04;101188.28;;;-4.71;100.00
10852;BME280;5479;52.046;6.314;2022-11-20T05:28:34;101177.19;;;-4.63;100.00
10852;BME280;5479;52.046;6.314;2022-11-20T05:31:06;101177.13;;;-4.69;100.00
10852;BME280;5479;52.046;6.314;2022-11-20T05:33:35;101174.50;;;-4.70;100.00
10852;BME280;5479;52.046;6.314;2022-11-20T05:36:04;101179.63;;;-4.73;100.00
10852;BME280;5479;52.046;6.314;2022-11-20T05:38:32;101178.88;;;-4.62;100.00
10852;BME280;5479;52.046;6.314;2022-11-20T05:41:05;101174.56;;;-4.64;100.00
10852;BME280;5479;52.046;6.314;2022-11-20T05:43:34;101172.72;;;-4.77;100.00
10852;BME280;5479;52.046;6.314;2022-11-20T05:46:02;101170.97;;;-4.84;100.00
10852;BME280;5479;52.046;6.314;2022-11-20T05:48:31;101174.34;;;-4.89;100.00
10852;BME280;5479;52.046;6.314;2022-11-20T05:51:00;101168.38;;;-4.81;100.00
10852;BME280;5479;52.046;6.314;2022-11-20T05:53:29;101163.25;;;-4.78;100.00
10852;BME280;5479;52.046;6.314;2022-11-20T05:55:58;101165.88;;;-4.72;100.00
10852;BME280;5479;52.046;6.314;2022-11-20T05:58:28;101153.81;;;-4.76;100.00
10852;BME280;5479;52.046;6.314;2022-11-20T06:01:04;101158.13;;;-4.74;100.00
10852;BME280;5479;52.046;6.314;2022-11-20T06:03:32;101157.16;;;-4.83;100.00
10852;BME280;5479;52.046;6.314;2022-11-20T06:06:00;101158.84;;;-4.89;100.00
10852;BME280;5479;52.046;6.314;2022-11-20T06:08:29;101160.53;;;-4.94;100.00
10852;BME280;5479;52.046;6.314;2022-11-20T06:10:57;101167.47;;;-4.90;100.00
10852;BME280;5479;52.046;6.314;2022-11-20T06:13:25;101178.59;;;-4.95;100.00
10852;BME280;5479;52.046;6.314;2022-11-20T06:15:54;101183.72;;;-5.00;100.00
10852;BME280;5479;52.046;6.314;2022-11-20T06:18:22;101182.84;;;-5.02;100.00
10852;BME280;5479;52.046;6.314;2022-11-20T06:20:59;101169.06;;;-5.04;100.00
10852;BME280;5479;52.046;6.314;2022-11-20T06:23:28;101183.72;;;-5.01;100.00
10852;BME280;5479;52.046;6.314;2022-11-20T06:25:55;101176.91;;;-4.93;100.00
10852;BME280;5479;52.046;6.314;2022-11-20T06:28:23;101172.47;;;-5.06;100.00
10852;BME280;5479;52.046;6.314;2022-11-20T06:30:50;101168.91;;;-5.16;100.00
10852;BME280;5479;52.046;6.314;2022-11-20T06:33:20;101172.34;;;-5.18;100.00
10852;BME280;5479;52.046;6.314;2022-11-20T06:35:48;101170.59;;;-5.21;100.00
10852;BME280;5479;52.046;6.314;2022-11-20T06:38:19;101177.38;;;-5.29;100.00
10852;BME280;5479;52.046;6.314;2022-11-20T06:40:47;101177.41;;;-5.26;100.00
10852;BME280;5479;52.046;6.314;2022-11-20T06:43:15;101183.38;;;-5.31;100.00
10852;BME280;5479;52.046;6.314;2022-11-20T06:45:42;101179.03;;;-5.37;100.00
10852;BME280;5479;52.046;6.314;2022-11-20T06:48:10;101193.69;;;-5.33;100.00
10852;BME280;5479;52.046;6.314;2022-11-20T06:50:41;101179.88;;;-5.35;100.00
10852;BME280;5479;52.046;6.314;2022-11-20T06:53:09;101188.47;;;-5.37;100.00
10852;BME280;5479;52.046;6.314;2022-11-20T06:55:36;101192.78;;;-5.35;100.00
10852;BME280;5479;52.046;6.314;2022-11-20T06:58:04;101191.13;;;-5.33;100.00
10852;BME280;5479;52.046;6.314;2022-11-20T07:00:32;101188.59;;;-5.30;100.00
10852;BME280;5479;52.046;6.314;2022-11-20T07:03:02;101186.91;;;-5.23;100.00
10852;BME280;5479;52.046;6.314;2022-11-20T07:05:30;101186.94;;;-5.20;100.00
10852;BME280;5479;52.046;6.314;2022-11-20T07:08:00;101190.41;;;-5.18;100.00
10852;BME280;5479;52.046;6.314;2022-11-20T07:10:27;101190.38;;;-5.21;100.00
10852;BME280;5479;52.046;6.314;2022-11-20T07:12:55;101197.28;;;-5.20;100.00
10852;BME280;5479;52.046;6.314;2022-11-20T07:15:25;101199.84;;;-5.22;100.00
10852;BME280;5479;52.046;6.314;2022-11-20T07:17:53;101198.16;;;-5.20;100.00
10852;BME280;5479;52.046;6.314;2022-11-20T07:20:21;101197.97;;;-5.35;100.00
10852;BME280;5479;52.046;6.314;2022-11-20T07:22:53;101204.66;;;-5.52;100.00
10852;BME280;5479;52.046;6.314;2022-11-20T07:25:23;101209.06;;;-5.42;100.00
10852;BME280;5479;52.046;6.314;2022-11-20T07:27:51;101204.03;;;-5.33;100.00
10852;BME280;5479;52.046;6.314;2022-11-20T07:30:19;101198.03;;;-5.30;100.00
10852;BME280;5479;52.046;6.314;2022-11-20T07:32:47;101198.09;;;-5.24;100.00
10852;BME280;5479;52.046;6.314;2022-11-20T07:35:18;101205.06;;;-5.16;100.00
10852;BME280;5479;52.046;6.314;2022-11-20T07:37:46;101205.16;;;-5.07;100.00
10852;BME280;5479;52.046;6.314;2022-11-20T07:40:15;101195.03;;;-4.85;100.00
10852;BME280;5479;52.046;6.314;2022-11-20T07:42:48;101182.50;;;-4.40;100.00
10852;BME280;5479;52.046;6.314;2022-11-20T07:45:17;101184.47;;;-4.06;100.00
10852;BME280;5479;52.046;6.314;2022-11-20T07:47:45;101180.38;;;-3.55;100.00
10852;BME280;5479;52.046;6.314;2022-11-20T07:50:14;101175.31;;;-3.37;100.00
10852;BME280;5479;52.046;6.314;2022-11-20T07:52:42;101160.56;;;-3.56;100.00
10852;BME280;5479;52.046;6.314;2022-11-20T07:55:10;101169.19;;;-3.59;100.00
10852;BME280;5479;52.046;6.314;2022-11-20T07:57:38;101163.16;;;-3.47;100.00
10852;BME280;5479;52.046;6.314;2022-11-20T08:00:10;101161.41;;;-3.57;100.00
10852;BME280;5479;52.046;6.314;2022-11-20T08:02:38;101159.72;;;-3.51;100.00
10852;BME280;5479;52.046;6.314;2022-11-20T08:05:07;101158.09;;;-3.14;100.00
10852;BME280;5479;52.046;6.314;2022-11-20T08:07:36;101166.75;;;-2.70;100.00
10852;BME280;5479;52.046;6.314;2022-11-20T08:10:06;101165.88;;;-2.32;100.00
10852;BME280;5479;52.046;6.314;2022-11-20T08:12:34;101165.00;;;-2.01;100.00
10852;BME280;5479;52.046;6.314;2022-11-20T08:15:21;101156.19;;;-1.62;100.00
10852;BME280;5479;52.046;6.314;2022-11-20T08:17:49;101157.78;;;-1.36;100.00
10852;BME280;5479;52.046;6.314;2022-11-20T08:20:18;101152.63;;;-1.39;100.00
10852;BME280;5479;52.046;6.314;2022-11-20T08:22:46;101148.38;;;-1.59;100.00
10852;BME280;5479;52.046;6.314;2022-11-20T08:25:14;101155.44;;;-1.93;100.00
10852;BME280;5479;52.046;6.314;2022-11-20T08:27:41;101148.50;;;-1.93;100.00
10852;BME280;5479;52.046;6.314;2022-11-20T08:30:10;101158.97;;;-2.35;100.00
10852;BME280;5479;52.046;6.314;2022-11-20T08:32:41;101149.50;;;-2.47;100.00
10852;BME280;5479;52.046;6.314;2022-11-20T08:35:11;101151.16;;;-2.21;100.00
10852;BME280;5479;52.046;6.314;2022-11-20T08:37:38;101146.03;;;-2.30;100.00
10852;BME280;5479;52.046;6.314;2022-11-20T08:40:09;101144.16;;;-1.86;100.00
10852;BME280;5479;52.046;6.314;2022-11-20T08:42:45;101143.25;;;-1.73;100.00
10852;BME280;5479;52.046;6.314;2022-11-20T08:45:14;101145.78;;;-1.58;100.00
10852;BME280;5479;52.046;6.314;2022-11-20T08:47:44;101138.47;;;-0.89;100.00
10852;BME280;5479;52.046;6.314;2022-11-20T08:50:14;101134.63;;;-0.46;100.00
10852;BME280;5479;52.046;6.314;2022-11-20T08:52:42;101136.88;;;-0.08;100.00
10852;BME280;5479;52.046;6.314;2022-11-20T08:55:10;101131.88;;;-0.31;100.00
10852;BME280;5479;52.046;6.314;2022-11-20T08:57:58;101128.53;;;-0.43;100.00
10852;BME280;5479;52.046;6.314;2022-11-20T09:00:26;101126.47;;;-0.13;100.00
10852;BME280;5479;52.046;6.314;2022-11-20T09:02:55;101118.31;;;0.19;100.00
10852;BME280;5479;52.046;6.314;2022-11-20T09:05:25;101114.66;;;0.32;100.00
10852;BME280;5479;52.046;6.314;2022-11-20T09:07:56;101110.53;;;0.18;100.00
10852;BME280;5479;52.046;6.314;2022-11-20T09:10:24;101112.25;;;0.17;100.00
10852;BME280;5479;52.046;6.314;2022-11-20T09:12:52;101116.66;;;0.12;100.00
10852;BME280;5479;52.046;6.314;2022-11-20T09:15:20;101110.69;;;0.04;100.00
10852;BME280;5479;52.046;6.314;2022-11-20T09:17:51;101107.97;;;0.15;100.00
10852;BME280;5479;52.046;6.314;2022-11-20T09:20:21;101103.63;;;1.33;100.00
10852;BME280;5479;52.046;6.314;2022-11-20T09:22:49;101090.00;;;2.91;100.00
10852;BME280;5479;52.046;6.314;2022-11-20T09:25:17;101088.78;;;4.04;100.00
10852;BME280;5479;52.046;6.314;2022-11-20T09:27:45;101077.28;;;5.22;97.53
10852;BME280;5479;52.046;6.314;2022-11-20T09:30:15;101064.81;;;6.04;85.27
10852;BME280;5479;52.046;6.314;2022-11-20T09:32:43;101077.19;;;6.26;76.88
10852;BME280;5479;52.046;6.314;2022-11-20T09:35:11;101064.06;;;6.24;72.47
10852;BME280;5479;52.046;6.314;2022-11-20T09:37:40;101068.53;;;6.45;72.39
10852;BME280;5479;52.046;6.314;2022-11-20T09:40:18;101059.53;;;6.74;69.91
10852;BME280;5479;52.046;6.314;2022-11-20T09:42:52;101066.25;;;7.03;68.25
10852;BME280;5479;52.046;6.314;2022-11-20T09:45:25;101064.28;;;7.29;64.85
10852;BME280;5479;52.046;6.314;2022-11-20T09:48:10;101060.56;;;7.34;64.46
10852;BME280;5479;52.046;6.314;2022-11-20T09:50:45;101060.88;;;6.84;63.75
10852;BME280;5479;52.046;6.314;2022-11-20T09:53:24;101066.16;;;5.67;67.88
10852;BME280;5479;52.046;6.314;2022-11-20T09:55:54;101063.16;;;4.72;74.36
10852;BME280;5479;52.046;6.314;2022-11-20T09:58:29;101068.13;;;3.61;85.16
10852;BME280;5479;52.046;6.314;2022-11-20T10:01:10;101071.66;;;3.27;90.92
10852;BME280;5479;52.046;6.314;2022-11-20T10:03:49;101070.75;;;2.92;98.92
10852;BME280;5479;52.046;6.314;2022-11-20T10:06:24;101071.88;;;2.44;100.00
10852;BME280;5479;52.046;6.314;2022-11-20T10:09:04;101063.84;;;2.52;100.00
10852;BME280;5479;52.046;6.314;2022-11-20T10:11:44;101057.97;;;2.02;100.00
10852;BME280;5479;52.046;6.314;2022-11-20T10:14:27;101057.31;;;1.93;100.00
10852;BME280;5479;52.046;6.314;2022-11-20T10:17:04;101060.56;;;2.02;100.00
10852;BME280;5479;52.046;6.314;2022-11-20T10:19:54;101051.75;;;2.08;100.00
10852;BME280;5479;52.046;6.314;2022-11-20T10:22:35;101037.72;;;2.13;100.00
10852;BME280;5479;52.046;6.314;2022-11-20T10:25:14;101041.66;;;1.91;100.00
10852;BME280;5479;52.046;6.314;2022-11-20T10:27:58;101039.03;;;1.91;100.00
10852;BME280;5479;52.046;6.314;2022-11-20T10:30:31;101037.72;;;2.13;100.00
10852;BME280;5479;52.046;6.314;2022-11-20T10:33:13;101038.94;;;2.35;100.00
10852;BME280;5479;52.046;6.314;2022-11-20T10:35:43;101025.44;;;2.55;100.00
10852;BME280;5479;52.046;6.314;2022-11-20T10:38:17;101023.50;;;2.63;100.00
10852;BME280;5479;52.046;6.314;2022-11-20T10:40:49;101014.09;;;2.56;100.00
10852;BME280;5479;52.046;6.314;2022-11-20T10:43:32;101028.94;;;2.56;100.00
10852;BME280;5479;52.046;6.314;2022-11-20T10:46:03;101025.75;;;2.78;100.00
10852;BME280;5479;52.046;6.314;2022-11-20T10:48:33;101028.75;;;3.32;100.00
10852;BME280;5479;52.046;6.314;2022-11-20T10:51:13;101017.91;;;3.14;100.00
10852;BME280;5479;52.046;6.314;2022-11-20T10:53:57;101022.00;;;3.24;100.00
10852;BME280;5479;52.046;6.314;2022-11-20T10:56:34;101022.13;;;3.19;100.00
10852;BME280;5479;52.046;6.314;2022-11-20T10:59:23;101017.50;;;2.95;100.00
10852;BME280;5479;52.046;6.314;2022-11-20T11:01:55;101012.66;;;2.80;100.00
10852;BME280;5479;52.046;6.314;2022-11-20T11:04:40;101018.84;;;2.76;100.00
10852;BME280;5479;52.046;6.314;2022-11-20T11:07:16;101017.22;;;3.07;100.00
10852;BME280;5479;52.046;6.314;2022-11-20T11:09:48;101007.44;;;3.47;100.00
10852;BME280;5479;52.046;6.314;2022-11-20T11:12:19;101007.16;;;3.56;100.00
10852;BME280;5479;52.046;6.314;2022-11-20T11:14:50;100992.84;;;5.10;100.00
10852;BME280;5479;52.046;6.314;2022-11-20T11:17:28;100979.69;;;6.30;100.00
10852;BME280;5479;52.046;6.314;2022-11-20T11:20:17;100971.94;;;7.53;86.58
10852;BME280;5479;52.046;6.314;2022-11-20T11:22:48;100967.03;;;8.59;80.58
10852;BME280;5479;52.046;6.314;2022-11-20T11:25:26;100964.66;;;7.58;77.73
10852;BME280;5479;52.046;6.314;2022-11-20T11:27:58;100970.22;;;6.03;88.61
10852;BME280;5479;52.046;6.314;2022-11-20T11:30:27;100971.69;;;4.88;100.00
10852;BME280;5479;52.046;6.314;2022-11-20T11:33:04;100968.66;;;4.74;100.00
10852;BME280;5479;52.046;6.314;2022-11-20T11:35:44;100950.38;;;5.71;100.00
10852;BME280;5479;52.046;6.314;2022-11-20T11:38:16;100949.59;;;4.95;100.00
10852;BME280;5479;52.046;6.314;2022-11-20T11:40:46;100947.91;;;4.68;100.00
10852;BME280;5479;52.046;6.314;2022-11-20T11:43:21;100946.00;;;4.71;100.00
10852;BME280;5479;52.046;6.314;2022-11-20T11:46:24;100947.16;;;3.49;100.00
10852;BME280;5479;52.046;6.314;2022-11-20T11:48:58;100945.91;;;3.63;100.00
10852;BME280;5479;52.046;6.314;2022-11-20T11:51:31;100935.19;;;4.00;100.00
10852;BME280;5479;52.046;6.314;2022-11-20T11:54:14;100938.13;;;3.90;100.00
10852;BME280;5479;52.046;6.314;2022-11-20T11:56:45;100927.91;;;3.21;100.00
10852;BME280;5479;52.046;6.314;2022-11-20T11:59:22;100920.38;;;3.09;100.00
10852;BME280;5479;52.046;6.314;2022-11-20T12:01:56;100918.25;;;2.90;100.00
10852;BME280;5479;52.046;6.314;2022-11-20T12:04:40;100918.06;;;2.63;100.00
10852;BME280;5479;52.046;6.314;2022-11-20T12:07:15;100920.19;;;2.49;100.00
10852;BME280;5479;52.046;6.314;2022-11-20T12:09:52;100907.53;;;2.67;100.00
10852;BME280;5479;52.046;6.314;2022-11-20T12:12:25;100910.25;;;2.96;100.00
10852;BME280;5479;52.046;6.314;2022-11-20T12:14:57;100908.28;;;2.71;100.00
10852;BME280;5479;52.046;6.314;2022-11-20T12:17:27;100905.56;;;2.75;100.00
10852;BME280;5479;52.046;6.314;2022-11-20T12:19:56;100904.13;;;2.62;100.00
10852;BME280;5479;52.046;6.314;2022-11-20T12:22:33;100904.56;;;2.79;100.00
10852;BME280;5479;52.046;6.314;2022-11-20T12:25:08;100895.13;;;2.74;100.00
10852;BME280;5479;52.046;6.314;2022-11-20T12:28:01;100879.56;;;2.69;100.00
10852;BME280;5479;52.046;6.314;2022-11-20T12:30:39;100864.09;;;2.60;100.00
10852;BME280;5479;52.046;6.314;2022-11-20T12:33:40;100861.63;;;2.56;100.00
10852;BME280;5479;52.046;6.314;2022-11-20T12:36:19;100859.88;;;2.55;100.00
10852;BME280;5479;52.046;6.314;2022-11-20T12:39:15;100849.69;;;2.46;100.00
10852;BME280;5479;52.046;6.314;2022-11-20T12:42:07;100849.97;;;2.33;100.00
10852;BME280;5479;52.046;6.314;2022-11-20T12:45:21;100842.81;;;2.41;100.00
10852;BME280;5479;52.046;6.314;2022-11-20T12:48:19;100843.19;;;2.26;100.00
10852;BME280;5479;52.046;6.314;2022-11-20T12:51:10;100841.47;;;2.25;100.00
10852;BME280;5479;52.046;6.314;2022-11-20T12:53:59;100833.63;;;2.25;100.00
10852;BME280;5479;52.046;6.314;2022-11-20T12:56:42;100829.34;;;2.23;100.00
10852;BME280;5479;52.046;6.314;2022-11-20T12:59:29;100834.00;;;2.46;100.00
10852;BME280;5479;52.046;6.314;2022-11-20T13:02:14;100829.66;;;2.46;100.00
10852;BME280;5479;52.046;6.314;2022-11-20T13:05:05;100815.91;;;2.38;100.00
10852;BME280;5479;52.046;6.314;2022-11-20T13:07:38;100818.75;;;2.27;100.00
10852;BME280;5479;52.046;6.314;2022-11-20T13:10:14;100815.34;;;2.25;100.00
10852;BME280;5479;52.046;6.314;2022-11-20T13:12:46;100818.88;;;2.24;100.00
10852;BME280;5479;52.046;6.314;2022-11-20T13:15:35;100810.09;;;2.27;100.00
10852;BME280;5479;52.046;6.314;2022-11-20T13:18:25;100816.00;;;2.33;100.00